Time;durP1;ratioP1;P1;durP2;ratioP2;P2;SDS_P1;SDS_P2;PMS_P1;PMS_P2;Temp;Humidity;BMP_temperature;BMP_pressure;BME280_temperature;BME280_humidity;BME280_pressure;Samples;Min_cycle;Max_cycle;Signal;HPM_P1;HPM_P2
2022/06/02 00:02:09;;;;;;;9.68;6.53;;;;;;;;;;5064525;28;20402;-60
2022/06/02 00:04:45;;;;;;;9.50;6.60;;;;;;;;;;5063964;28;20059;-58
2022/06/02 00:07:17;;;;;;;9.45;6.70;;;;;;;;;;5064517;28;20063;-60
2022/06/02 00:09:54;;;;;;;11.02;7.15;;;;;;;;;;5064846;28;20041;-60
2022/06/02 00:12:25;;;;;;;11.20;7.32;;;;;;;;;;5063536;28;20041;-60
2022/06/02 00:15:00;;;;;;;8.02;5.78;;;;;;;;;;5064506;28;20490;-60
2022/06/02 00:17:36;;;;;;;7.60;4.72;;;;;;;;;;5063892;28;20101;-60
2022/06/02 00:20:08;;;;;;;7.75;5.45;;;;;;;;;;5063866;28;20045;-60
2022/06/02 00:22:42;;;;;;;8.63;6.68;;;;;;;;;;5050812;28;20056;-60
2022/06/02 00:25:11;;;;;;;7.25;5.30;;;;;;;;;;5064315;28;20048;-59
2022/06/02 00:27:43;;;;;;;4.82;3.53;;;;;;;;;;5063066;28;20088;-60
2022/06/02 00:30:17;;;;;;;5.60;3.42;;;;;;;;;;5063873;28;20486;-60
2022/06/02 00:32:44;;;;;;;16.83;5.00;;;;;;;;;;5064587;28;20044;-60
2022/06/02 00:35:13;;;;;;;15.77;5.32;;;;;;;;;;5064369;28;20040;-58
2022/06/02 00:37:49;;;;;;;57.03;6.25;;;;;;;;;;5062601;28;20170;-60
2022/06/02 00:40:15;;;;;;;21.80;4.95;;;;;;;;;;5066142;28;20498;-60
2022/06/02 00:42:50;;;;;;;7.03;4.40;;;;;;;;;;5064901;28;20102;-60
2022/06/02 00:45:17;;;;;;;5.53;3.63;;;;;;;;;;5068178;28;20119;-60
2022/06/02 00:47:55;;;;;;;5.50;3.95;;;;;;;;;;5067799;28;20044;-60
2022/06/02 00:50:31;;;;;;;5.47;4.00;;;;;;;;;;5067997;28;20518;-60
2022/06/02 00:53:09;;;;;;;5.00;4.03;;;;;;;;;;5066322;28;20048;-60
2022/06/02 00:58:40;;;;;;;6.95;4.68;;;;;;;;;;5066313;28;20048;-60
2022/06/02 01:01:13;;;;;;;7.20;4.38;;;;;;;;;;5067382;28;20041;-60
2022/06/02 01:03:42;;;;;;;7.82;5.45;;;;;;;;;;5066627;28;20459;-60
2022/06/02 01:06:15;;;;;;;8.98;5.65;;;;;;;;;;5065662;28;20059;-60
2022/06/02 01:08:47;;;;;;;7.15;4.95;;;;;;;;;;5073500;22;20048;-60
2022/06/02 01:11:33;;;;;;;9.13;6.30;;;;;;;;;;5066879;28;20047;-60
2022/06/02 01:14:19;;;;;;;10.52;7.22;;;;;;;;;;5066209;28;20049;-60
2022/06/02 01:16:57;;;;;;;10.85;7.03;;;;;;;;;;5067016;28;20048;-60
2022/06/02 01:19:40;;;;;;;10.80;7.20;;;;;;;;;;5067154;28;20048;-60
2022/06/02 01:22:19;;;;;;;11.63;7.93;;;;;;;;;;5066588;28;20049;-60
2022/06/02 01:24:52;;;;;;;13.38;8.38;;;;;;;;;;5067228;28;20052;-60
2022/06/02 01:27:31;;;;;;;12.73;8.43;;;;;;;;;;5065242;28;20398;-60
2022/06/02 01:29:58;;;;;;;13.63;8.55;;;;;;;;;;5066066;28;20040;-60
2022/06/02 01:32:30;;;;;;;11.02;7.90;;;;;;;;;;5066425;28;20041;-60
2022/06/02 01:35:05;;;;;;;12.77;8.18;;;;;;;;;;5066818;28;20169;-60
2022/06/02 01:37:44;;;;;;;11.38;8.18;;;;;;;;;;5066402;28;20041;-60
2022/06/02 01:40:17;;;;;;;11.82;8.27;;;;;;;;;;5066325;28;20052;-60
2022/06/02 01:42:44;;;;;;;17.10;8.40;;;;;;;;;;5066463;28;20032;-60
2022/06/02 01:45:10;;;;;;;11.00;8.05;;;;;;;;;;5058990;28;20051;-60
2022/06/02 01:47:38;;;;;;;12.90;7.85;;;;;;;;;;5066445;28;20041;-60
2022/06/02 01:50:23;;;;;;;10.80;7.27;;;;;;;;;;5067205;28;20049;-60
2022/06/02 01:52:56;;;;;;;12.57;7.78;;;;;;;;;;5064947;28;20381;-60
2022/06/02 01:55:38;;;;;;;11.57;7.95;;;;;;;;;;5066412;28;20037;-60
2022/06/02 01:58:04;;;;;;;12.13;7.63;;;;;;;;;;5065413;28;20469;-60
2022/06/02 02:00:32;;;;;;;15.27;7.60;;;;;;;;;;5066146;28;20044;-60
2022/06/02 02:02:58;;;;;;;11.50;7.55;;;;;;;;;;5066850;28;20052;-60
2022/06/02 02:05:29;;;;;;;12.30;7.28;;;;;;;;;;5066199;28;20520;-60
2022/06/02 02:08:06;;;;;;;10.35;6.13;;;;;;;;;;5066070;28;20040;-60
2022/06/02 02:10:54;;;;;;;14.48;5.68;;;;;;;;;;5065909;28;20509;-60
2022/06/02 02:13:27;;;;;;;7.10;4.78;;;;;;;;;;5065735;28;20439;-60
2022/06/02 02:16:11;;;;;;;7.85;5.75;;;;;;;;;;5066591;28;20094;-60
2022/06/02 02:18:39;;;;;;;7.93;5.82;;;;;;;;;;5065642;28;20473;-60
2022/06/02 02:21:25;;;;;;;9.60;6.68;;;;;;;;;;5066540;28;20100;-60
2022/06/02 02:23:52;;;;;;;12.77;8.65;;;;;;;;;;5065864;28;20115;-60
2022/06/02 02:26:20;;;;;;;9.88;7.30;;;;;;;;;;5065910;28;20076;-60
2022/06/02 02:29:04;;;;;;;12.27;7.75;;;;;;;;;;5065048;28;20044;-60
2022/06/02 02:31:41;;;;;;;10.77;7.38;;;;;;;;;;5066011;28;20048;-60
2022/06/02 02:34:16;;;;;;;13.43;7.60;;;;;;;;;;5065170;28;20088;-60
2022/06/02 02:36:45;;;;;;;10.00;6.72;;;;;;;;;;5065074;28;20043;-60
2022/06/02 02:39:21;;;;;;;8.65;6.25;;;;;;;;;;5064827;28;20127;-60
2022/06/02 02:41:48;;;;;;;8.43;5.50;;;;;;;;;;5066165;28;20040;-60
2022/06/02 02:44:14;;;;;;;9.50;6.82;;;;;;;;;;5065419;28;20039;-60
2022/06/02 02:46:49;;;;;;;9.48;6.55;;;;;;;;;;5064068;28;20389;-60
2022/06/02 02:49:19;;;;;;;11.13;6.38;;;;;;;;;;5065584;28;20036;-60
2022/06/02 02:51:46;;;;;;;12.40;6.07;;;;;;;;;;5066103;28;20041;-60
2022/06/02 02:54:12;;;;;;;8.38;5.53;;;;;;;;;;5065931;28;20040;-64
2022/06/02 02:56:46;;;;;;;5.93;3.88;;;;;;;;;;5065412;28;20041;-61
2022/06/02 02:59:23;;;;;;;6.10;4.57;;;;;;;;;;5065384;28;20040;-60
2022/06/02 03:02:11;;;;;;;7.45;4.88;;;;;;;;;;5065441;28;20497;-60
2022/06/02 03:04:43;;;;;;;9.35;6.28;;;;;;;;;;5064416;28;20243;-60
2022/06/02 03:07:09;;;;;;;13.13;6.93;;;;;;;;;;5065186;28;20110;-60
2022/06/02 03:09:45;;;;;;;9.65;6.75;;;;;;;;;;5064681;28;20487;-60
2022/06/02 03:12:27;;;;;;;12.02;7.10;;;;;;;;;;5064699;28;20720;-60
2022/06/02 03:14:55;;;;;;;13.02;7.93;;;;;;;;;;5064589;28;20037;-60
2022/06/02 03:17:33;;;;;;;12.63;8.00;;;;;;;;;;5064398;28;20041;-60
2022/06/02 03:20:08;;;;;;;11.30;7.30;;;;;;;;;;5064985;28;20049;-60
2022/06/02 03:22:36;;;;;;;10.02;7.03;;;;;;;;;;5065001;28;20040;-60
2022/06/02 03:25:08;;;;;;;14.50;8.02;;;;;;;;;;5064435;28;20052;-60
2022/06/02 03:27:38;;;;;;;13.15;7.75;;;;;;;;;;5063779;28;20527;-60
2022/06/02 03:30:06;;;;;;;11.75;8.25;;;;;;;;;;5064216;28;20040;-61
2022/06/02 03:32:36;;;;;;;11.05;6.90;;;;;;;;;;5064857;28;20047;-60
2022/06/02 03:35:09;;;;;;;10.60;7.55;;;;;;;;;;5064708;28;20040;-60
2022/06/02 03:37:47;;;;;;;12.85;8.00;;;;;;;;;;5064256;28;20044;-60
2022/06/02 03:40:14;;;;;;;13.23;8.05;;;;;;;;;;5065118;28;20083;-60
2022/06/02 03:42:47;;;;;;;13.40;8.30;;;;;;;;;;5063723;28;20060;-60
2022/06/02 03:45:17;;;;;;;13.45;9.07;;;;;;;;;;5065251;28;20040;-60
2022/06/02 03:47:49;;;;;;;15.45;8.88;;;;;;;;;;5064290;28;20048;-60
2022/06/02 03:50:16;;;;;;;16.27;9.07;;;;;;;;;;5065018;28;20480;-60
2022/06/02 03:52:52;;;;;;;15.73;9.55;;;;;;;;;;5064889;28;20046;-60
2022/06/02 03:55:25;;;;;;;13.52;8.95;;;;;;;;;;5064879;28;20049;-60
2022/06/02 03:58:10;;;;;;;13.88;9.23;;;;;;;;;;5063721;28;20048;-60
2022/06/02 04:00:46;;;;;;;13.45;9.13;;;;;;;;;;5064327;28;20040;-60
2022/06/02 04:03:15;;;;;;;16.00;8.57;;;;;;;;;;5064742;28;20477;-59
2022/06/02 04:05:51;;;;;;;16.67;9.05;;;;;;;;;;5064035;28;20375;-60
2022/06/02 04:08:36;;;;;;;13.52;8.52;;;;;;;;;;5064411;28;20033;-59
2022/06/02 04:11:17;;;;;;;14.25;9.30;;;;;;;;;;5064471;28;20075;-60
2022/06/02 04:13:44;;;;;;;15.15;9.27;;;;;;;;;;5064140;28;20041;-60
2022/06/02 04:16:17;;;;;;;18.40;9.77;;;;;;;;;;5067851;28;20072;-60
2022/06/02 04:18:59;;;;;;;12.68;8.88;;;;;;;;;;5068703;28;20052;-60
2022/06/02 04:21:25;;;;;;;12.63;8.90;;;;;;;;;;5064480;28;20088;-60
2022/06/02 04:24:11;;;;;;;17.55;9.77;;;;;;;;;;5048533;28;20134;-60
2022/06/02 04:26:47;;;;;;;12.68;8.52;;;;;;;;;;5062465;28;20036;-60
2022/06/02 04:29:14;;;;;;;14.93;9.73;;;;;;;;;;5067799;28;20037;-59
2022/06/02 04:31:53;;;;;;;14.00;9.52;;;;;;;;;;5067280;28;20048;-60
2022/06/02 04:34:31;;;;;;;14.82;9.30;;;;;;;;;;5065839;28;20127;-60
2022/06/02 04:37:03;;;;;;;17.63;9.57;;;;;;;;;;5065836;28;20481;-60
2022/06/02 04:39:35;;;;;;;17.50;10.05;;;;;;;;;;5066894;28;20036;-61
2022/06/02 04:42:03;;;;;;;15.07;9.68;;;;;;;;;;5066749;28;20048;-61
2022/06/02 04:44:39;;;;;;;14.73;9.48;;;;;;;;;;5067313;28;20114;-61
2022/06/02 04:47:23;;;;;;;14.98;9.35;;;;;;;;;;5065924;28;20139;-61
2022/06/02 04:49:54;;;;;;;12.35;8.60;;;;;;;;;;5067234;28;20158;-61
2022/06/02 04:52:27;;;;;;;16.58;10.02;;;;;;;;;;5067573;28;20044;-61
2022/06/02 04:54:59;;;;;;;12.35;8.52;;;;;;;;;;5066322;28;20491;-61
2022/06/02 04:57:43;;;;;;;13.52;9.07;;;;;;;;;;5066753;28;20178;-62
2022/06/02 05:00:21;;;;;;;12.45;8.48;;;;;;;;;;5067092;28;20036;-62
2022/06/02 05:03:09;;;;;;;16.73;9.10;;;;;;;;;;5066197;28;20047;-61
2022/06/02 05:05:52;;;;;;;14.52;9.23;;;;;;;;;;5067231;28;20052;-60
2022/06/02 05:08:33;;;;;;;13.57;8.57;;;;;;;;;;5063724;28;20033;-60
2022/06/02 05:11:02;;;;;;;13.93;9.15;;;;;;;;;;5067684;28;20072;-61
2022/06/02 05:13:28;;;;;;;12.18;8.55;;;;;;;;;;5055711;28;20040;-60
2022/06/02 05:15:57;;;;;;;18.42;10.20;;;;;;;;;;5063682;28;20048;-61
2022/06/02 05:18:26;;;;;;;14.85;9.15;;;;;;;;;;5067143;28;20087;-61
2022/06/02 05:21:06;;;;;;;13.88;9.20;;;;;;;;;;5067826;28;20516;-61
2022/06/02 05:23:53;;;;;;;14.98;8.57;;;;;;;;;;5067491;28;20072;-61
2022/06/02 05:26:38;;;;;;;14.63;8.57;;;;;;;;;;5065981;28;20525;-61
2022/06/02 05:29:12;;;;;;;16.13;9.25;;;;;;;;;;5065536;28;20067;-61
2022/06/02 05:31:59;;;;;;;12.45;8.55;;;;;;;;;;5061577;28;20055;-61
2022/06/02 05:34:35;;;;;;;15.20;9.25;;;;;;;;;;5064815;28;20047;-61
2022/06/02 05:37:01;;;;;;;13.02;9.05;;;;;;;;;;5065537;28;20037;-61
2022/06/02 05:39:27;;;;;;;13.05;8.63;;;;;;;;;;5063295;28;20040;-62
2022/06/02 05:42:03;;;;;;;16.08;9.60;;;;;;;;;;5066426;28;20516;-61
2022/06/02 05:44:36;;;;;;;13.88;9.20;;;;;;;;;;5067385;28;20047;-60
2022/06/02 05:47:07;;;;;;;11.82;8.27;;;;;;;;;;5069520;28;20063;-60
2022/06/02 05:49:34;;;;;;;13.55;8.77;;;;;;;;;;5056943;28;20044;-61
2022/06/02 05:52:07;;;;;;;10.88;7.88;;;;;;;;;;5067509;28;20406;-61
2022/06/02 05:54:39;;;;;;;9.93;7.45;;;;;;;;;;5065905;28;20040;-61
2022/06/02 05:57:18;;;;;;;9.45;6.90;;;;;;;;;;5066473;28;20043;-61
2022/06/02 06:00:00;;;;;;;12.05;7.18;;;;;;;;;;5067339;28;20045;-61
2022/06/02 06:02:39;;;;;;;9.10;6.43;;;;;;;;;;5067075;28;20048;-61
2022/06/02 06:05:18;;;;;;;10.98;7.25;;;;;;;;;;5067209;28;20044;-63
2022/06/02 06:07:51;;;;;;;225.75;28.25;;;;;;;;;;5061948;28;20033;-63
2022/06/02 06:10:25;;;;;;;10.02;6.80;;;;;;;;;;5062187;28;20052;-59
2022/06/02 06:12:57;;;;;;;10.02;6.30;;;;;;;;;;5064140;28;20086;-62
2022/06/02 06:15:23;;;;;;;10.95;7.07;;;;;;;;;;5065257;28;20506;-61
2022/06/02 06:17:57;;;;;;;25.08;7.20;;;;;;;;;;5063447;28;20044;-61
2022/06/02 06:20:27;;;;;;;8.65;5.25;;;;;;;;;;5064257;28;20048;-61
2022/06/02 06:23:00;;;;;;;12.13;6.05;;;;;;;;;;5065016;28;20032;-62
2022/06/02 06:25:35;;;;;;;10.48;6.68;;;;;;;;;;5065011;28;20045;-61
2022/06/02 06:28:02;;;;;;;11.23;5.22;;;;;;;;;;5061838;28;20414;-62
2022/06/02 06:30:35;;;;;;;6.40;3.90;;;;;;;;;;5064520;28;20072;-61
2022/06/02 06:33:11;;;;;;;6.18;3.72;;;;;;;;;;5064492;28;20498;-62
2022/06/02 06:35:44;;;;;;;6.65;4.05;;;;;;;;;;5063516;28;20079;-62
2022/06/02 06:38:16;;;;;;;5.82;3.42;;;;;;;;;;5063080;28;20371;-61
2022/06/02 06:40:49;;;;;;;5.82;4.13;;;;;;;;;;5064748;28;20517;-62
2022/06/02 06:43:25;;;;;;;11.02;4.28;;;;;;;;;;5064365;28;20072;-62
2022/06/02 06:46:01;;;;;;;7.65;4.25;;;;;;;;;;5064108;28;20422;-61
2022/06/02 06:48:35;;;;;;;4.82;3.40;;;;;;;;;;5064473;28;20040;-61
2022/06/02 06:51:08;;;;;;;8.98;3.63;;;;;;;;;;5065101;28;20079;-62
2022/06/02 06:53:44;;;;;;;4.95;3.55;;;;;;;;;;5063437;28;20047;-61
2022/06/02 06:56:11;;;;;;;4.82;3.03;;;;;;;;;;5064239;28;20040;-62
2022/06/02 06:58:56;;;;;;;7.07;3.00;;;;;;;;;;5064397;28;20622;-61
2022/06/02 07:01:28;;;;;;;4.43;2.63;;;;;;;;;;5063981;28;20075;-61
2022/06/02 07:04:00;;;;;;;3.72;1.90;;;;;;;;;;5064256;28;20040;-62
2022/06/02 07:06:31;;;;;;;4.97;2.42;;;;;;;;;;5064055;28;20071;-61
2022/06/02 07:08:57;;;;;;;3.97;1.70;;;;;;;;;;5062957;28;20628;-62
2022/06/02 07:14:25;;;;;;;5.57;2.88;;;;;;;;;;5064128;28;20115;-61
2022/06/02 07:16:55;;;;;;;;;;;;;;;;;;5062522;28;20140;-61
2022/06/02 07:19:21;;;;;;;5.50;2.20;;;;;;;;;;5063589;28;19924;-63
2022/06/02 07:21:53;;;;;;;7.28;2.42;;;;;;;;;;5064112;28;20036;-62
2022/06/02 07:24:23;;;;;;;6.43;2.30;;;;;;;;;;5063659;28;20054;-61
2022/06/02 07:26:54;;;;;;;3.78;2.25;;;;;;;;;;5061207;28;20043;-61
2022/06/02 07:29:35;;;;;;;5.28;2.20;;;;;;;;;;5062468;28;20028;-61
2022/06/02 07:32:08;;;;;;;3.03;2.13;;;;;;;;;;5064030;28;20049;-62
2022/06/02 07:34:52;;;;;;;4.43;2.50;;;;;;;;;;5063826;28;20163;-61
2022/06/02 07:37:39;;;;;;;6.97;2.42;;;;;;;;;;5062946;28;20074;-61
2022/06/02 07:40:13;;;;;;;3.58;2.35;;;;;;;;;;5062907;28;20513;-61
2022/06/02 07:43:04;;;;;;;6.28;3.60;;;;;;;;;;5063145;28;20119;-61
2022/06/02 07:45:35;;;;;;;7.57;4.05;;;;;;;;;;5063694;28;20040;-61
2022/06/02 07:48:11;;;;;;;7.95;4.53;;;;;;;;;;5063661;28;20111;-62
2022/06/02 07:50:41;;;;;;;6.07;2.78;;;;;;;;;;5063158;28;20032;-61
2022/06/02 07:53:13;;;;;;;5.03;2.60;;;;;;;;;;5063984;28;20130;-61
2022/06/02 07:55:58;;;;;;;4.20;2.53;;;;;;;;;;5063483;28;20036;-62
2022/06/02 07:58:38;;;;;;;4.63;2.40;;;;;;;;;;5062304;28;20046;-61
2022/06/02 08:01:08;;;;;;;3.80;2.63;;;;;;;;;;5063746;28;20044;-62
2022/06/02 08:03:44;;;;;;;6.57;3.00;;;;;;;;;;5063475;28;20123;-62
2022/06/02 08:06:17;;;;;;;3.13;2.35;;;;;;;;;;5062335;28;20135;-61
2022/06/02 08:08:59;;;;;;;5.45;2.80;;;;;;;;;;5063862;28;20088;-61
2022/06/02 08:11:25;;;;;;;5.05;1.90;;;;;;;;;;5062436;28;20060;-61
2022/06/02 08:13:52;;;;;;;3.65;1.98;;;;;;;;;;5064011;28;20115;-61
2022/06/02 08:16:27;;;;;;;4.68;2.30;;;;;;;;;;5063391;28;20048;-61
2022/06/02 08:19:05;;;;;;;3.53;1.88;;;;;;;;;;5061853;28;20103;-61
2022/06/02 08:21:36;;;;;;;3.63;2.00;;;;;;;;;;5062185;28;20558;-62
2022/06/02 08:24:07;;;;;;;3.55;2.28;;;;;;;;;;5063642;28;20088;-61
2022/06/02 08:26:40;;;;;;;6.32;2.40;;;;;;;;;;5060473;28;20041;-62
2022/06/02 08:29:25;;;;;;;2.58;1.80;;;;;;;;;;5061000;28;20040;-62
2022/06/02 08:32:11;;;;;;;3.20;1.42;;;;;;;;;;5063165;28;20044;-61
2022/06/02 08:34:53;;;;;;;3.13;1.70;;;;;;;;;;5063319;28;20264;-61
2022/06/02 08:37:19;;;;;;;4.40;2.40;;;;;;;;;;5062519;28;20096;-61
2022/06/02 08:39:46;;;;;;;4.25;2.00;;;;;;;;;;5063641;28;20045;-61
2022/06/02 08:42:18;;;;;;;6.07;1.80;;;;;;;;;;5062721;28;20148;-62
2022/06/02 08:44:54;;;;;;;3.13;1.50;;;;;;;;;;5064104;28;20097;-61
2022/06/02 08:47:34;;;;;;;4.28;1.52;;;;;;;;;;5062072;28;20037;-61
2022/06/02 08:50:10;;;;;;;3.53;1.30;;;;;;;;;;5063403;28;20040;-61
2022/06/02 08:52:58;;;;;;;2.78;1.50;;;;;;;;;;5062476;28;20464;-62
2022/06/02 08:55:26;;;;;;;2.17;1.55;;;;;;;;;;5063087;28;20493;-61
2022/06/02 08:57:52;;;;;;;2.15;1.42;;;;;;;;;;5061725;28;20401;-62
2022/06/02 09:00:22;;;;;;;3.67;1.60;;;;;;;;;;5063466;28;20324;-61
2022/06/02 09:02:50;;;;;;;4.13;1.33;;;;;;;;;;5066300;28;20455;-61
2022/06/02 09:05:34;;;;;;;3.08;1.75;;;;;;;;;;5067268;28;20481;-62
2022/06/02 09:08:07;;;;;;;4.22;1.48;;;;;;;;;;5066712;28;20123;-61
2022/06/02 09:10:34;;;;;;;4.00;1.63;;;;;;;;;;5066286;28;20142;-62
2022/06/02 09:13:10;;;;;;;3.17;1.50;;;;;;;;;;5065663;28;20051;-61
2022/06/02 09:15:55;;;;;;;2.78;1.52;;;;;;;;;;5066228;28;20299;-61
2022/06/02 09:18:41;;;;;;;3.33;1.55;;;;;;;;;;5065588;28;20412;-62
2022/06/02 09:21:10;;;;;;;3.75;1.70;;;;;;;;;;5066667;28;20043;-61
2022/06/02 09:23:47;;;;;;;2.20;1.48;;;;;;;;;;5064099;28;20081;-61
2022/06/02 09:26:14;;;;;;;2.80;1.73;;;;;;;;;;5065660;28;20131;-61
2022/06/02 09:28:50;;;;;;;3.50;2.08;;;;;;;;;;5062980;28;20048;-62
2022/06/02 09:31:29;;;;;;;4.18;1.67;;;;;;;;;;5063346;28;20769;-61
2022/06/02 09:33:55;;;;;;;;;;;;;;;;;;5067125;28;20043;-62
2022/06/02 09:36:26;;;;;;;4.10;1.88;;;;;;;;;;5066095;28;19929;-61
2022/06/02 09:38:59;;;;;;;3.38;1.50;;;;;;;;;;5065944;28;20112;-61
2022/06/02 09:41:36;;;;;;;3.35;1.70;;;;;;;;;;5064812;28;20048;-62
2022/06/02 09:44:08;;;;;;;4.38;1.60;;;;;;;;;;5065966;28;20033;-62
2022/06/02 09:46:35;;;;;;;2.78;1.50;;;;;;;;;;5065581;28;20047;-62
2022/06/02 09:49:08;;;;;;;4.05;1.88;;;;;;;;;;5065493;28;20064;-62
2022/06/02 09:51:41;;;;;;;2.83;1.55;;;;;;;;;;5065924;28;20040;-62
2022/06/02 09:54:07;;;;;;;3.10;1.42;;;;;;;;;;5064239;28;20049;-61
2022/06/02 09:56:46;;;;;;;3.90;1.40;;;;;;;;;;5064289;28;20456;-62
2022/06/02 09:59:25;;;;;;;3.60;1.63;;;;;;;;;;5065803;28;20075;-61
2022/06/02 10:02:12;;;;;;;2.25;1.17;;;;;;;;;;5065932;28;20049;-62
2022/06/02 10:04:57;;;;;;;2.60;1.35;;;;;;;;;;5065451;28;20482;-61
2022/06/02 10:07:29;;;;;;;2.30;1.20;;;;;;;;;;5065374;28;20045;-62
2022/06/02 10:10:09;;;;;;;3.58;1.42;;;;;;;;;;5063758;28;20493;-62
2022/06/02 10:15:36;;;;;;;2.10;1.40;;;;;;;;;;5065163;28;20084;-61
2022/06/02 10:18:09;;;;;;;4.38;1.20;;;;;;;;;;5065565;28;20080;-62
2022/06/02 10:20:35;;;;;;;4.53;1.50;;;;;;;;;;5062858;28;20037;-61
2022/06/02 10:23:11;;;;;;;2.47;1.30;;;;;;;;;;5065644;28;20063;-62
2022/06/02 10:25:43;;;;;;;7.70;1.60;;;;;;;;;;5064871;28;20032;-61
2022/06/02 10:28:23;;;;;;;1.70;1.10;;;;;;;;;;5065023;28;20045;-61
2022/06/02 10:31:08;;;;;;;2.35;1.30;;;;;;;;;;5061472;28;20040;-62
2022/06/02 10:33:35;;;;;;;2.30;1.30;;;;;;;;;;5063459;28;20050;-62
2022/06/02 10:36:20;;;;;;;2.35;1.10;;;;;;;;;;5064875;28;20064;-62
2022/06/02 10:38:48;;;;;;;1.90;1.30;;;;;;;;;;5065027;28;20521;-62
2022/06/02 10:41:20;;;;;;;1.75;1.02;;;;;;;;;;5064324;28;20036;-62
2022/06/02 10:43:52;;;;;;;1.50;0.95;;;;;;;;;;5064892;28;20040;-61
2022/06/02 10:46:34;;;;;;;1.83;1.00;;;;;;;;;;5063916;28;20055;-61
2022/06/02 10:49:15;;;;;;;4.43;1.20;;;;;;;;;;5064767;28;20037;-62
2022/06/02 10:51:42;;;;;;;3.30;1.42;;;;;;;;;;5064799;28;20044;-61
2022/06/02 10:54:12;;;;;;;3.35;1.40;;;;;;;;;;5061468;28;20071;-62
2022/06/02 10:56:42;;;;;;;3.78;1.20;;;;;;;;;;5060297;28;20044;-61
2022/06/02 10:59:22;;;;;;;3.00;1.17;;;;;;;;;;5062285;28;20041;-61
2022/06/02 11:01:56;;;;;;;1.70;0.93;;;;;;;;;;5060504;28;20040;-62
2022/06/02 11:04:41;;;;;;;2.65;1.17;;;;;;;;;;5061227;28;20434;-62
2022/06/02 11:07:10;;;;;;;3.20;1.10;;;;;;;;;;5061358;28;20123;-61
2022/06/02 11:09:50;;;;;;;1.55;1.10;;;;;;;;;;5061283;28;20410;-61
2022/06/02 11:12:32;;;;;;;4.38;1.30;;;;;;;;;;5061817;28;20076;-61
2022/06/02 11:15:14;;;;;;;3.25;1.20;;;;;;;;;;5061278;28;20743;-62
2022/06/02 11:17:52;;;;;;;1.83;1.10;;;;;;;;;;5058208;28;20041;-62
2022/06/02 11:20:28;;;;;;;2.50;1.40;;;;;;;;;;5059671;28;20045;-61
2022/06/02 11:23:04;;;;;;;2.70;1.35;;;;;;;;;;5059754;28;20674;-61
2022/06/02 11:25:39;;;;;;;4.75;1.20;;;;;;;;;;5059863;28;20118;-61
2022/06/02 11:28:06;;;;;;;1.92;1.17;;;;;;;;;;5061829;28;20037;-62
2022/06/02 11:30:47;;;;;;;4.60;1.20;;;;;;;;;;5060655;28;20058;-61
2022/06/02 11:33:23;;;;;;;2.42;1.20;;;;;;;;;;5061754;28;20051;-61
2022/06/02 11:36:07;;;;;;;3.13;1.20;;;;;;;;;;5060897;28;20047;-61
2022/06/02 11:38:48;;;;;;;3.95;1.33;;;;;;;;;;5060025;28;21490;-62
2022/06/02 11:41:14;;;;;;;2.45;1.10;;;;;;;;;;5059860;28;20551;-61
2022/06/02 11:43:59;;;;;;;5.00;1.30;;;;;;;;;;5060683;28;20067;-61
2022/06/02 11:46:33;;;;;;;1.88;1.30;;;;;;;;;;5057593;28;20041;-61
2022/06/02 11:49:07;;;;;;;3.15;1.40;;;;;;;;;;5061091;28;20044;-61
2022/06/02 11:51:33;;;;;;;3.58;1.27;;;;;;;;;;5062487;28;20097;-61
2022/06/02 11:54:11;;;;;;;4.47;1.10;;;;;;;;;;5061908;28;20052;-62
2022/06/02 11:56:56;;;;;;;2.33;1.33;;;;;;;;;;5062780;28;20486;-61
2022/06/02 11:59:40;;;;;;;2.63;1.23;;;;;;;;;;5063293;28;20040;-61
2022/06/02 12:02:16;;;;;;;2.30;1.13;;;;;;;;;;5063723;28;20128;-62
2022/06/02 12:04:49;;;;;;;2.08;1.00;;;;;;;;;;5064267;28;20036;-61
2022/06/02 12:07:21;;;;;;;2.90;1.25;;;;;;;;;;5062991;28;20047;-62
2022/06/02 12:09:58;;;;;;;4.40;1.25;;;;;;;;;;5063268;28;20452;-61
2022/06/02 12:12:45;;;;;;;3.03;1.00;;;;;;;;;;5062553;28;20048;-62
2022/06/02 12:15:26;;;;;;;1.83;0.98;;;;;;;;;;5063990;28;20045;-61
2022/06/02 12:18:01;;;;;;;5.07;1.20;;;;;;;;;;5063003;28;20047;-61
2022/06/02 12:20:36;;;;;;;3.53;1.10;;;;;;;;;;5062826;28;20047;-61
2022/06/02 12:23:06;;;;;;;4.72;1.23;;;;;;;;;;5062697;28;20051;-61
2022/06/02 12:25:41;;;;;;;1.80;1.15;;;;;;;;;;5064579;28;20180;-61
2022/06/02 12:28:18;;;;;;;1.50;1.00;;;;;;;;;;5057616;28;20052;-62
2022/06/02 12:30:51;;;;;;;1.90;1.08;;;;;;;;;;5063319;28;20036;-61
2022/06/02 12:33:21;;;;;;;4.15;1.00;;;;;;;;;;5062547;28;20044;-61
2022/06/02 12:36:00;;;;;;;3.20;1.00;;;;;;;;;;5065389;28;20047;-62
2022/06/02 12:38:34;;;;;;;1.67;0.80;;;;;;;;;;5065843;28;20190;-61
2022/06/02 12:41:10;;;;;;;2.08;0.80;;;;;;;;;;5067362;28;20041;-61
2022/06/02 12:44:06;;;;;;;2.45;0.90;;;;;;;;;;5068541;28;20133;-62
2022/06/02 12:46:42;;;;;;;1.88;0.80;;;;;;;;;;5065677;28;20045;-61
2022/06/02 12:49:31;;;;;;;1.90;0.80;;;;;;;;;;5067364;28;20124;-61
2022/06/02 12:52:07;;;;;;;3.08;1.25;;;;;;;;;;5065606;28;20048;-62
2022/06/02 12:54:48;;;;;;;20.20;1.85;;;;;;;;;;5067430;28;20041;-62
2022/06/02 12:57:30;;;;;;;2.10;1.00;;;;;;;;;;5066793;28;20037;-61
2022/06/02 12:59:56;;;;;;;1.73;1.00;;;;;;;;;;5067185;28;20041;-61
2022/06/02 13:02:23;;;;;;;4.35;0.90;;;;;;;;;;5066181;28;20044;-62
2022/06/02 13:05:08;;;;;;;1.65;0.80;;;;;;;;;;5066930;28;20095;-63
2022/06/02 13:07:45;;;;;;;1.27;0.88;;;;;;;;;;5067035;28;20032;-62
2022/06/02 13:10:17;;;;;;;2.40;0.80;;;;;;;;;;5066303;28;20076;-60
2022/06/02 13:12:56;;;;;;;2.80;0.90;;;;;;;;;;5067934;28;20099;-62
2022/06/02 13:15:30;;;;;;;4.07;1.13;;;;;;;;;;5066534;28;20037;-61
2022/06/02 13:17:58;;;;;;;2.60;0.90;;;;;;;;;;5066490;28;20365;-62
2022/06/02 13:20:28;;;;;;;1.60;0.95;;;;;;;;;;5066328;28;20082;-61
2022/06/02 13:23:13;;;;;;;2.78;0.80;;;;;;;;;;5066758;28;20051;-62
2022/06/02 13:25:50;;;;;;;1.35;0.70;;;;;;;;;;5065609;28;20375;-61
2022/06/02 13:28:24;;;;;;;3.38;1.05;;;;;;;;;;5066838;28;20041;-61
2022/06/02 13:31:00;;;;;;;5.47;0.98;;;;;;;;;;5064946;28;20406;-61
2022/06/02 13:33:57;;;;;;;3.53;0.68;;;;;;;;;;5066330;28;21906;-62
2022/06/02 13:36:32;;;;;;;1.83;0.70;;;;;;;;;;5065781;28;20351;-62
2022/06/02 13:39:11;;;;;;;2.75;1.08;;;;;;;;;;5065546;28;20040;-62
2022/06/02 13:41:59;;;;;;;2.88;1.00;;;;;;;;;;5064942;28;20044;-62
2022/06/02 13:44:35;;;;;;;3.70;1.23;;;;;;;;;;5063162;28;20048;-62
2022/06/02 13:47:04;;;;;;;1.65;0.88;;;;;;;;;;5065175;28;20036;-62
2022/06/02 13:49:31;;;;;;;1.48;0.88;;;;;;;;;;5064451;28;20040;-63
2022/06/02 13:51:57;;;;;;;3.92;0.80;;;;;;;;;;5067049;28;20041;-62
2022/06/02 13:57:31;;;;;;;2.83;0.60;;;;;;;;;;5062604;28;20045;-62
2022/06/02 14:00:18;;;;;;;1.75;0.75;;;;;;;;;;5066110;28;20086;-62
2022/06/02 14:02:52;;;;;;;1.95;0.73;;;;;;;;;;5066235;28;20044;-62
2022/06/02 14:05:34;;;;;;;2.10;0.70;;;;;;;;;;5066335;28;20093;-62
2022/06/02 14:08:01;;;;;;;1.63;0.77;;;;;;;;;;5064222;28;20562;-62
2022/06/02 14:10:46;;;;;;;1.63;0.88;;;;;;;;;;5065624;28;20144;-62
2022/06/02 14:13:12;;;;;;;3.10;0.70;;;;;;;;;;5066015;28;20044;-62
2022/06/02 14:15:39;;;;;;;8.75;1.00;;;;;;;;;;5065644;28;20072;-62
2022/06/02 14:18:10;;;;;;;3.53;1.00;;;;;;;;;;5065647;28;20412;-63
2022/06/02 14:20:46;;;;;;;2.85;0.80;;;;;;;;;;5064465;28;20068;-62
2022/06/02 14:23:35;;;;;;;4.72;0.82;;;;;;;;;;5066056;28;20048;-61
2022/06/02 14:26:16;;;;;;;3.85;1.25;;;;;;;;;;5064449;28;20097;-62
2022/06/02 14:28:46;;;;;;;1.40;0.80;;;;;;;;;;5063463;28;20041;-62
2022/06/02 14:31:28;;;;;;;3.08;1.20;;;;;;;;;;5064189;28;20616;-62
2022/06/02 14:34:05;;;;;;;1.45;0.85;;;;;;;;;;5065437;28;20037;-63
2022/06/02 14:36:36;;;;;;;1.85;0.80;;;;;;;;;;5064823;28;20379;-63
2022/06/02 14:39:09;;;;;;;2.83;0.77;;;;;;;;;;5065170;28;20131;-63
2022/06/02 14:41:45;;;;;;;1.20;0.85;;;;;;;;;;5063886;28;20153;-62
2022/06/02 14:44:31;;;;;;;1.63;0.75;;;;;;;;;;5063571;28;20405;-62
2022/06/02 14:47:06;;;;;;;1.08;0.65;;;;;;;;;;5060938;28;20094;-62
2022/06/02 14:49:39;;;;;;;1.90;0.80;;;;;;;;;;5064247;28;20114;-62
2022/06/02 14:52:23;;;;;;;1.80;0.80;;;;;;;;;;5064939;28;20036;-62
2022/06/02 14:54:53;;;;;;;2.08;0.98;;;;;;;;;;5063245;28;20119;-62
2022/06/02 14:57:19;;;;;;;6.20;1.10;;;;;;;;;;5063729;28;20078;-63
2022/06/02 15:00:05;;;;;;;2.15;1.00;;;;;;;;;;5065390;28;20064;-63
2022/06/02 15:02:49;;;;;;;2.65;0.93;;;;;;;;;;5065123;28;20127;-62
2022/06/02 15:05:21;;;;;;;2.58;0.73;;;;;;;;;;5065610;28;20036;-63
2022/06/02 15:08:01;;;;;;;1.65;0.68;;;;;;;;;;5063043;28;20036;-61
2022/06/02 15:10:29;;;;;;;2.70;0.70;;;;;;;;;;5063487;28;20056;-62
2022/06/02 15:13:09;;;;;;;1.67;0.90;;;;;;;;;;5065346;28;20045;-61
2022/06/02 15:15:45;;;;;;;1.50;0.75;;;;;;;;;;5064166;28;20052;-61
2022/06/02 15:18:29;;;;;;;2.63;0.80;;;;;;;;;;5062984;28;20045;-61
2022/06/02 15:20:58;;;;;;;3.17;1.27;;;;;;;;;;5065178;28;20050;-61
2022/06/02 15:23:37;;;;;;;4.40;0.85;;;;;;;;;;5065113;28;20052;-61
2022/06/02 15:26:22;;;;;;;2.70;0.93;;;;;;;;;;5064874;28;20491;-61
2022/06/02 15:28:48;;;;;;;1.38;0.57;;;;;;;;;;5065062;28;20043;-61
2022/06/02 15:31:17;;;;;;;1.98;0.70;;;;;;;;;;5065517;28;20041;-61
2022/06/02 15:33:44;;;;;;;4.57;0.90;;;;;;;;;;5065796;28;20048;-61
2022/06/02 15:36:18;;;;;;;1.80;0.70;;;;;;;;;;5065130;28;20051;-61